createdAt,value
2019-03-03T00:00:44.615Z,35.07
2019-03-03T00:03:13.275Z,39.43
2019-03-03T00:05:42.058Z,44.60
2019-03-03T00:08:10.676Z,40.13
2019-03-03T00:10:39.251Z,37.07
2019-03-03T00:13:07.897Z,42.90
2019-03-03T00:15:37.114Z,37.40
2019-03-03T00:18:05.823Z,40.23
2019-03-03T00:20:34.445Z,40.70
2019-03-03T00:23:03.120Z,41.63
2019-03-03T00:25:31.663Z,37.07
2019-03-03T00:28:00.507Z,38.50
2019-03-03T00:30:29.149Z,41.30
2019-03-03T00:32:57.790Z,41.73
2019-03-03T00:35:26.327Z,45.53
2019-03-03T00:37:59.437Z,42.03
2019-03-03T00:40:35.880Z,42.93
2019-03-03T00:43:22.357Z,36.80
2019-03-03T00:46:09.859Z,42.20
2019-03-03T00:48:55.301Z,41.60
2019-03-03T00:51:41.386Z,44.43
2019-03-03T00:54:11.625Z,44.90
2019-03-03T00:56:41.816Z,49.13
2019-03-03T00:59:28.635Z,40.33
2019-03-03T01:01:58.880Z,43.13
2019-03-03T01:04:29.032Z,43.23
2019-03-03T01:07:08.071Z,43.50
2019-03-03T01:09:53.493Z,48.43
2019-03-03T01:12:23.823Z,42.87
2019-03-03T01:15:05.952Z,49.17
2019-03-03T01:17:38.825Z,46.57
2019-03-03T01:20:11.554Z,47.57
2019-03-03T01:22:41.868Z,53.53
2019-03-03T01:25:10.640Z,52.00
2019-03-03T01:27:39.494Z,45.20
2019-03-03T01:30:11.433Z,47.83
2019-03-03T01:32:40.129Z,44.50
2019-03-03T01:35:10.597Z,50.63
2019-03-03T01:37:39.221Z,50.73
2019-03-03T01:40:09.955Z,50.83
2019-03-03T01:42:38.588Z,47.40
2019-03-03T01:45:12.977Z,50.10
2019-03-03T01:47:41.745Z,56.13
2019-03-03T01:50:12.082Z,56.30
2019-03-03T01:52:40.971Z,53.57
2019-03-03T01:55:11.296Z,50.40
2019-03-03T01:57:40.244Z,46.93
2019-03-03T02:00:22.967Z,52.00
2019-03-03T02:02:51.609Z,51.53
2019-03-03T02:05:20.173Z,52.50
2019-03-03T02:07:48.991Z,51.33
2019-03-03T02:10:19.830Z,50.60
2019-03-03T02:12:48.553Z,50.93
2019-03-03T02:15:17.332Z,52.83
2019-03-03T02:17:45.969Z,56.60
2019-03-03T02:20:14.559Z,54.37
2019-03-03T02:22:43.613Z,51.80
2019-03-03T02:25:14.145Z,55.70
2019-03-03T02:27:42.835Z,50.90
2019-03-03T02:30:19.386Z,51.63
2019-03-03T02:32:49.027Z,51.33
2019-03-03T02:35:17.896Z,64.60
2019-03-03T02:37:46.900Z,52.90
2019-03-03T02:40:17.758Z,54.73
2019-03-03T02:42:46.599Z,57.70
2019-03-03T02:45:16.517Z,57.90
2019-03-03T02:47:45.208Z,59.30
2019-03-03T02:50:15.395Z,52.03
2019-03-03T02:52:44.681Z,60.77
2019-03-03T02:55:14.798Z,61.97
2019-03-03T02:57:43.446Z,65.70
2019-03-03T03:00:23.424Z,60.07
2019-03-03T03:02:53.961Z,63.10
2019-03-03T03:05:42.256Z,62.80
2019-03-03T03:08:12.511Z,62.73
2019-03-03T03:10:42.701Z,57.37
2019-03-03T03:13:29.650Z,62.20
2019-03-03T03:16:08.665Z,65.10
2019-03-03T03:18:39.011Z,67.93
2019-03-03T03:21:09.637Z,64.30
2019-03-03T03:23:46.037Z,66.67
2019-03-03T03:26:24.978Z,58.37
2019-03-03T03:28:58.170Z,68.77
2019-03-03T03:31:37.177Z,63.93
2019-03-03T03:34:13.424Z,60.33
2019-03-03T03:36:58.909Z,62.30
2019-03-03T03:39:31.981Z,66.57
2019-03-03T03:42:11.114Z,56.23
2019-03-03T03:44:44.237Z,65.50
2019-03-03T03:47:17.647Z,67.07
2019-03-03T03:50:04.366Z,62.27
2019-03-03T03:52:34.748Z,64.07
2019-03-03T03:55:14.919Z,64.00
2019-03-03T03:57:48.009Z,61.83
2019-03-03T04:00:33.551Z,65.60
2019-03-03T04:03:06.240Z,60.53
2019-03-03T04:05:39.836Z,66.70
2019-03-03T04:08:13.091Z,69.57
2019-03-03T04:11:01.459Z,60.00
2019-03-03T04:13:34.132Z,53.77
2019-03-03T04:16:16.547Z,54.20
2019-03-03T04:18:52.771Z,51.60
2019-03-03T04:21:25.969Z,51.40
2019-03-03T04:24:02.316Z,52.10
2019-03-03T04:26:35.626Z,50.43
2019-03-03T04:29:14.519Z,49.80
2019-03-03T04:31:47.731Z,51.17
2019-03-03T04:34:32.941Z,52.40
2019-03-03T04:37:21.553Z,62.53
2019-03-03T04:39:51.868Z,49.23
2019-03-03T04:42:38.366Z,52.93
2019-03-03T04:45:12.223Z,50.17
2019-03-03T04:47:54.788Z,47.50
2019-03-03T04:50:28.052Z,51.10
2019-03-03T04:53:10.402Z,42.70
2019-03-03T04:55:43.661Z,55.77
2019-03-03T04:58:23.127Z,46.87
2019-03-03T05:01:09.669Z,47.90
2019-03-03T05:03:45.795Z,47.77
2019-03-03T05:06:22.278Z,45.97
2019-03-03T05:08:52.603Z,44.97
2019-03-03T05:12:15.601Z,40.83
2019-03-03T05:14:44.777Z,43.93
2019-03-03T05:17:15.025Z,38.07
2019-03-03T05:19:45.344Z,42.17
2019-03-03T05:22:13.936Z,49.97
2019-03-03T05:24:42.543Z,40.73
2019-03-03T05:27:11.102Z,33.10
2019-03-03T05:29:40.957Z,31.60
2019-03-03T05:32:09.627Z,34.53
2019-03-03T05:34:38.228Z,34.83
2019-03-03T05:37:06.783Z,36.67
2019-03-03T05:39:35.436Z,38.30
2019-03-03T05:42:04.033Z,37.07
2019-03-03T05:44:32.734Z,32.63
2019-03-03T05:47:01.272Z,40.70
2019-03-03T05:49:29.929Z,32.77
2019-03-03T05:51:58.568Z,33.10
2019-03-03T05:54:27.491Z,42.10
2019-03-03T05:56:56.065Z,28.37
2019-03-03T05:59:24.729Z,30.83
2019-03-03T06:01:53.259Z,26.60
2019-03-03T06:04:21.926Z,25.30
2019-03-03T06:06:50.501Z,24.47
2019-03-03T06:09:19.330Z,27.50
2019-03-03T06:11:47.837Z,21.80
2019-03-03T06:14:16.455Z,21.60
2019-03-03T06:16:44.992Z,21.90
2019-03-03T06:19:13.606Z,19.80
2019-03-03T06:21:42.304Z,20.90
2019-03-03T06:24:10.868Z,18.70
2019-03-03T06:26:39.477Z,16.73
2019-03-03T06:29:08.180Z,20.83
2019-03-03T06:31:36.870Z,21.13
2019-03-03T06:34:05.785Z,21.30
2019-03-03T06:36:34.363Z,18.07
2019-03-03T06:39:03.157Z,16.73
2019-03-03T06:41:31.792Z,15.47
2019-03-03T06:44:00.374Z,12.97
2019-03-03T06:46:28.946Z,15.80
2019-03-03T06:48:57.585Z,14.20
2019-03-03T06:51:26.228Z,16.27
2019-03-03T06:53:54.852Z,14.33
2019-03-03T06:56:23.391Z,17.07
2019-03-03T06:58:52.063Z,11.47
2019-03-03T07:01:20.580Z,16.30
2019-03-03T07:03:49.218Z,10.10
2019-03-03T07:06:17.832Z,12.97
2019-03-03T07:08:46.488Z,14.20
2019-03-03T07:11:15.096Z,13.73
2019-03-03T07:13:43.660Z,15.67
2019-03-03T07:16:12.294Z,10.03
2019-03-03T07:18:40.955Z,13.53
2019-03-03T07:21:09.532Z,11.37
2019-03-03T07:23:38.218Z,15.80
2019-03-03T07:26:06.826Z,17.43
2019-03-03T07:28:35.471Z,18.97
2019-03-03T07:31:04.091Z,17.83
2019-03-03T07:33:32.943Z,8.40
2019-03-03T07:36:01.586Z,12.20
2019-03-03T07:38:30.287Z,11.13
2019-03-03T07:40:59.969Z,14.77
2019-03-03T07:43:28.603Z,12.07
2019-03-03T07:45:57.208Z,12.80
2019-03-03T07:48:25.775Z,8.40
2019-03-03T07:50:54.374Z,13.27
2019-03-03T07:53:23.041Z,20.63
2019-03-03T07:55:51.648Z,15.23
2019-03-03T07:58:20.249Z,12.37
2019-03-03T08:00:48.812Z,11.50
2019-03-03T08:03:17.475Z,14.63
2019-03-03T08:05:46.084Z,13.40
2019-03-03T08:08:14.757Z,9.43
2019-03-03T08:10:43.292Z,15.00
2019-03-03T08:13:11.988Z,13.83
2019-03-03T08:15:40.631Z,13.13
2019-03-03T08:18:09.205Z,11.90
2019-03-03T08:20:38.158Z,9.00
2019-03-03T08:23:06.820Z,13.83
2019-03-03T08:25:35.684Z,10.70
2019-03-03T08:28:04.613Z,13.20
2019-03-03T08:30:33.416Z,10.10
2019-03-03T08:33:02.022Z,13.60
2019-03-03T08:35:32.384Z,16.17
2019-03-03T08:38:00.976Z,9.37
2019-03-03T08:40:29.542Z,10.47
2019-03-03T08:43:04.109Z,11.23
2019-03-03T08:45:52.834Z,10.13
2019-03-03T08:48:26.096Z,11.60
2019-03-03T08:50:59.180Z,10.07
2019-03-03T08:53:45.852Z,9.43
2019-03-03T08:56:24.963Z,8.30
2019-03-03T08:58:57.963Z,13.10
2019-03-03T09:01:43.551Z,17.53
2019-03-03T09:04:13.821Z,12.23
2019-03-03T09:06:49.817Z,9.00
2019-03-03T09:09:20.032Z,14.33
2019-03-03T09:12:08.003Z,12.43
2019-03-03T09:14:47.348Z,15.83
2019-03-03T09:17:17.620Z,23.83
2019-03-03T09:19:53.384Z,14.53
2019-03-03T09:22:25.995Z,12.47
2019-03-03T09:24:56.237Z,11.67
2019-03-03T09:27:41.676Z,11.33
2019-03-03T09:30:16.341Z,14.00
2019-03-03T09:32:46.577Z,16.17
2019-03-03T09:35:22.873Z,10.63
2019-03-03T09:37:55.856Z,11.87
2019-03-03T09:40:34.147Z,9.40
2019-03-03T09:43:04.371Z,14.20
2019-03-03T09:45:35.003Z,12.97
2019-03-03T09:48:05.572Z,9.73
2019-03-03T09:50:35.775Z,15.03
2019-03-03T09:53:12.125Z,14.43
2019-03-03T09:56:00.502Z,11.53
2019-03-03T09:58:46.886Z,16.97
2019-03-03T10:01:17.160Z,13.07
2019-03-03T10:04:03.333Z,13.53
2019-03-03T10:06:36.778Z,19.13
2019-03-03T10:09:17.372Z,19.63
2019-03-03T10:11:53.572Z,15.53
2019-03-03T10:14:35.690Z,23.13
2019-03-03T10:17:15.472Z,13.00
2019-03-03T10:19:52.465Z,14.07
2019-03-03T10:22:29.192Z,13.83
2019-03-03T10:24:59.670Z,12.63
2019-03-03T10:27:38.657Z,15.43
2019-03-03T10:30:25.673Z,10.40
2019-03-03T10:33:12.303Z,26.93
2019-03-03T10:35:45.500Z,13.50
2019-03-03T10:38:15.945Z,11.03
2019-03-03T10:40:46.223Z,14.50
2019-03-03T10:43:19.786Z,11.80
2019-03-03T10:46:02.050Z,15.20
2019-03-03T10:48:32.484Z,15.33
2019-03-03T10:51:03.080Z,10.10
2019-03-03T10:53:33.390Z,19.97
2019-03-03T10:56:06.662Z,13.70
2019-03-03T10:58:37.366Z,19.00
2019-03-03T11:01:07.997Z,19.23
2019-03-03T11:03:44.283Z,14.40
2019-03-03T11:06:31.116Z,15.87
2019-03-03T11:09:01.377Z,7.03
2019-03-03T11:11:34.235Z,14.83
2019-03-03T11:14:15.396Z,12.93
2019-03-03T11:16:46.063Z,15.93
2019-03-03T11:19:32.434Z,15.23
2019-03-03T11:22:14.566Z,10.20
2019-03-03T11:24:51.160Z,12.70
2019-03-03T11:27:26.659Z,14.60
2019-03-03T11:30:00.472Z,11.10
2019-03-03T11:32:36.943Z,10.63
2019-03-03T11:35:08.195Z,18.30
2019-03-03T11:37:38.420Z,13.20
2019-03-03T11:40:11.889Z,19.20
2019-03-03T11:43:00.829Z,9.27
2019-03-03T11:45:33.946Z,14.63
2019-03-03T11:48:20.044Z,10.93
2019-03-03T11:50:53.289Z,9.10
2019-03-03T11:53:26.768Z,17.13
2019-03-03T11:56:05.909Z,15.77
2019-03-03T11:58:45.264Z,8.30
2019-03-03T12:01:35.198Z,11.03
2019-03-03T12:04:08.447Z,14.90
2019-03-03T12:06:41.693Z,13.60
2019-03-03T12:09:12.021Z,13.70
2019-03-03T12:11:48.542Z,11.53
2019-03-03T12:14:37.723Z,12.50
2019-03-03T12:17:09.776Z,14.63
2019-03-03T12:19:40.257Z,12.10
2019-03-03T12:22:26.687Z,18.80
2019-03-03T12:25:13.007Z,14.80
2019-03-03T12:27:49.055Z,11.83
2019-03-03T12:30:20.217Z,12.80
2019-03-03T12:33:08.875Z,17.80
2019-03-03T12:35:39.652Z,12.27
2019-03-03T12:38:09.900Z,15.27
2019-03-03T12:40:48.831Z,11.80
2019-03-03T12:43:22.064Z,21.40
2019-03-03T12:45:52.434Z,19.73
2019-03-03T12:48:22.643Z,19.70
2019-03-03T12:51:11.694Z,17.43
2019-03-03T12:53:42.093Z,16.63
2019-03-03T12:56:12.453Z,14.13
2019-03-03T12:58:43.097Z,15.00
2019-03-03T13:01:16.202Z,13.10
2019-03-03T13:03:58.725Z,14.67
2019-03-03T13:06:33.343Z,13.93
2019-03-03T13:09:09.745Z,14.27
2019-03-03T13:11:40.193Z,14.40
2019-03-03T13:14:13.561Z,15.17
2019-03-03T13:16:47.526Z,16.83
2019-03-03T13:19:32.814Z,18.30
2019-03-03T13:22:03.064Z,15.90
2019-03-03T13:24:36.571Z,15.90
2019-03-03T13:27:18.810Z,13.50
2019-03-03T13:29:52.064Z,9.83
2019-03-03T13:32:34.445Z,14.10
2019-03-03T13:35:06.573Z,18.33
2019-03-03T13:37:54.833Z,16.53
2019-03-03T13:40:34.564Z,13.53
2019-03-03T13:43:03.308Z,14.10
2019-03-03T13:45:32.460Z,13.17
2019-03-03T13:48:01.577Z,10.63
2019-03-03T13:50:30.340Z,9.93
2019-03-03T13:52:59.078Z,15.03
2019-03-03T13:55:27.867Z,16.40
2019-03-03T13:57:56.519Z,12.83
2019-03-03T14:00:25.256Z,12.73
2019-03-03T14:02:53.921Z,12.80
2019-03-03T14:05:23.074Z,12.80
2019-03-03T14:07:51.712Z,10.30
2019-03-03T14:10:20.956Z,12.53
2019-03-03T14:12:50.057Z,12.10
2019-03-03T14:15:19.927Z,14.63
2019-03-03T14:17:48.669Z,14.10
2019-03-03T14:20:19.725Z,15.03
2019-03-03T14:22:50.147Z,22.10
2019-03-03T14:25:19.731Z,14.70
2019-03-03T14:27:50.112Z,15.63
2019-03-03T14:30:21.972Z,17.63
2019-03-03T14:32:50.705Z,19.90
2019-03-03T14:35:20.279Z,20.27
2019-03-03T14:37:50.119Z,22.20
2019-03-03T14:40:22.707Z,13.67
2019-03-03T14:42:51.931Z,20.77
2019-03-03T14:45:21.191Z,18.30
2019-03-03T14:47:49.848Z,15.97
2019-03-03T14:50:23.127Z,14.20
2019-03-03T14:52:54.725Z,11.00
2019-03-03T14:55:24.371Z,11.93
2019-03-03T14:57:54.170Z,20.80
2019-03-03T15:00:26.833Z,14.40
2019-03-03T15:02:56.373Z,12.83
2019-03-03T15:05:25.036Z,14.13
2019-03-03T15:07:54.026Z,10.77
2019-03-03T15:10:22.686Z,11.57
2019-03-03T15:12:52.370Z,14.63
2019-03-03T15:15:24.366Z,11.00
2019-03-03T15:17:53.186Z,15.17
2019-03-03T15:20:22.287Z,17.77
2019-03-03T15:22:51.056Z,14.63
2019-03-03T15:25:19.842Z,11.73
2019-03-03T15:27:49.555Z,13.77
2019-03-03T15:30:21.399Z,21.60
2019-03-03T15:32:52.858Z,25.70
2019-03-03T15:35:21.642Z,16.97
2019-03-03T15:37:51.183Z,20.67
2019-03-03T15:40:26.755Z,18.30
2019-03-03T15:42:55.973Z,14.93
2019-03-03T15:45:27.177Z,16.67
2019-03-03T15:47:55.921Z,27.67
2019-03-03T15:50:25.850Z,18.23
2019-03-03T15:52:54.552Z,18.43
2019-03-03T15:55:25.808Z,21.77
2019-03-03T15:57:54.655Z,25.10
2019-03-03T16:00:29.899Z,18.90
2019-03-03T16:02:58.612Z,17.03
2019-03-03T16:05:27.498Z,22.77
2019-03-03T16:07:56.265Z,27.33
2019-03-03T16:10:27.014Z,16.50
2019-03-03T16:12:55.671Z,17.73
2019-03-03T16:15:24.583Z,18.37
2019-03-03T16:17:53.214Z,17.63
2019-03-03T16:20:25.478Z,18.70
2019-03-03T16:22:54.100Z,23.33
2019-03-03T16:25:24.068Z,18.67
2019-03-03T16:27:53.191Z,23.83
2019-03-03T16:30:23.167Z,22.83
2019-03-03T16:32:52.408Z,28.87
2019-03-03T16:35:22.028Z,17.53
2019-03-03T16:37:50.735Z,24.70
2019-03-03T16:40:21.850Z,22.00
2019-03-03T16:42:50.936Z,20.90
2019-03-03T16:45:20.920Z,20.20
2019-03-03T16:47:50.080Z,21.43
2019-03-03T16:50:20.462Z,26.97
2019-03-03T16:52:49.216Z,16.27
2019-03-03T16:55:19.253Z,24.20
2019-03-03T16:57:48.192Z,26.13
2019-03-03T17:00:22.644Z,25.97
2019-03-03T17:02:51.874Z,22.53
2019-03-03T17:05:22.759Z,22.43
2019-03-03T17:07:51.506Z,20.63
2019-03-03T17:10:20.349Z,23.33
2019-03-03T17:12:49.765Z,16.13
2019-03-03T17:15:20.853Z,24.80
2019-03-03T17:17:50.118Z,16.67
2019-03-03T17:20:19.217Z,20.40
2019-03-03T17:22:47.892Z,21.37
2019-03-03T17:25:23.295Z,19.70
2019-03-03T17:28:07.665Z,18.20
2019-03-03T17:30:39.903Z,18.93
2019-03-03T17:33:09.092Z,24.93
2019-03-03T17:35:37.732Z,18.33
2019-03-03T17:38:06.506Z,22.87
2019-03-03T17:40:35.953Z,24.67
2019-03-03T17:43:04.672Z,22.83
2019-03-03T17:45:33.532Z,14.20
2019-03-03T17:48:02.243Z,19.40
2019-03-03T17:50:31.606Z,23.23
2019-03-03T17:53:00.932Z,22.20
2019-03-03T17:55:29.661Z,27.53
2019-03-03T17:57:58.528Z,24.87
2019-03-03T18:00:36.149Z,26.57
2019-03-03T18:03:05.948Z,21.13
2019-03-03T18:05:35.047Z,25.30
2019-03-03T18:08:04.366Z,21.50
2019-03-03T18:10:34.365Z,20.80
2019-03-03T18:13:03.128Z,24.20
2019-03-03T18:15:32.033Z,16.57
2019-03-03T18:18:00.759Z,20.10
2019-03-03T18:20:29.466Z,23.37
2019-03-03T18:22:58.180Z,18.00
2019-03-03T18:25:26.846Z,16.73
2019-03-03T18:27:55.703Z,30.53
2019-03-03T18:30:28.750Z,17.40
2019-03-03T18:32:57.917Z,19.73
2019-03-03T18:35:27.117Z,18.37
2019-03-03T18:37:57.383Z,18.67
2019-03-03T18:40:28.148Z,15.93
2019-03-03T18:42:57.304Z,20.73
2019-03-03T18:45:26.211Z,24.57
2019-03-03T18:47:54.914Z,17.33
2019-03-03T18:50:30.869Z,20.17
2019-03-03T18:53:00.122Z,20.37
2019-03-03T18:55:29.018Z,18.13
2019-03-03T18:57:57.766Z,21.60
2019-03-03T19:00:28.638Z,17.77
2019-03-03T19:02:58.383Z,14.43
2019-03-03T19:05:27.130Z,22.23
2019-03-03T19:07:55.948Z,15.87
2019-03-03T19:10:30.315Z,14.80
2019-03-03T19:12:58.985Z,27.17
2019-03-03T19:15:27.631Z,19.43
2019-03-03T19:17:56.359Z,19.43
2019-03-03T19:20:26.820Z,16.00
2019-03-03T19:22:55.394Z,18.20
2019-03-03T19:25:24.393Z,12.43
2019-03-03T19:27:53.080Z,15.67
2019-03-03T19:30:24.220Z,18.07
2019-03-03T19:33:01.994Z,13.80
2019-03-03T19:35:30.896Z,15.80
2019-03-03T19:37:59.460Z,20.03
2019-03-03T19:40:28.396Z,15.00
2019-03-03T19:42:57.122Z,18.90
2019-03-03T19:45:31.702Z,14.00
2019-03-03T19:48:00.925Z,17.50
2019-03-03T19:50:30.224Z,16.17
2019-03-03T19:52:59.251Z,14.70
2019-03-03T19:55:28.314Z,13.60
2019-03-03T19:57:57.692Z,14.83
2019-03-03T20:00:35.431Z,14.87
2019-03-03T20:03:02.605Z,13.03
2019-03-03T20:05:31.811Z,14.40
2019-03-03T20:08:00.497Z,17.13
2019-03-03T20:10:29.530Z,13.27
2019-03-03T20:12:58.392Z,17.00
2019-03-03T20:15:28.642Z,18.77
2019-03-03T20:17:58.128Z,24.20
2019-03-03T20:20:27.848Z,14.50
2019-03-03T20:22:57.294Z,23.50
2019-03-03T20:25:26.369Z,14.13
2019-03-03T20:27:55.946Z,19.47
2019-03-03T20:30:25.660Z,13.10
2019-03-03T20:32:55.400Z,17.80
2019-03-03T20:35:24.351Z,24.10
2019-03-03T20:37:53.252Z,11.83
2019-03-03T20:40:27.394Z,15.80
2019-03-03T20:42:56.671Z,16.37
2019-03-03T20:45:29.703Z,14.97
2019-03-03T20:48:00.866Z,11.73
2019-03-03T20:50:29.655Z,14.40
2019-03-03T20:52:59.649Z,11.17
2019-03-03T20:55:33.150Z,11.40
2019-03-03T20:58:02.597Z,10.40
2019-03-03T21:00:32.476Z,15.70
2019-03-03T21:03:01.210Z,10.60
2019-03-03T21:05:31.302Z,14.73
2019-03-03T21:08:00.720Z,15.50
2019-03-03T21:10:35.558Z,11.73
2019-03-03T21:13:04.704Z,15.47
2019-03-03T21:15:33.388Z,11.60
2019-03-03T21:18:02.121Z,9.00
2019-03-03T21:20:31.458Z,11.63
2019-03-03T21:23:00.581Z,12.87
2019-03-03T21:25:29.691Z,10.63
2019-03-03T21:27:59.071Z,12.73
2019-03-03T21:30:28.710Z,11.63
2019-03-03T21:32:58.657Z,10.40
2019-03-03T21:35:27.310Z,9.83
2019-03-03T21:37:56.214Z,11.47
2019-03-03T21:40:28.678Z,9.03
2019-03-03T21:42:57.630Z,13.67
2019-03-03T21:45:27.849Z,6.37
2019-03-03T21:47:57.393Z,13.03
2019-03-03T21:50:27.623Z,17.43
2019-03-03T21:52:56.744Z,9.80
2019-03-03T21:55:25.479Z,11.93
2019-03-03T21:57:54.024Z,7.97
2019-03-03T22:00:31.469Z,10.73
2019-03-03T22:03:00.355Z,10.80
2019-03-03T22:05:29.002Z,8.20
2019-03-03T22:07:57.723Z,13.50
2019-03-03T22:10:29.578Z,7.47
2019-03-03T22:13:00.606Z,10.73
2019-03-03T22:15:29.331Z,13.13
2019-03-03T22:17:58.611Z,8.03
2019-03-03T22:20:27.164Z,19.63
2019-03-03T22:22:55.792Z,8.87
2019-03-03T22:25:24.662Z,11.80
2019-03-03T22:27:53.248Z,8.50
2019-03-03T22:30:22.990Z,11.13
2019-03-03T22:32:51.722Z,13.53
2019-03-03T22:35:20.349Z,10.63
2019-03-03T22:37:48.961Z,9.20
2019-03-03T22:40:19.758Z,11.43
2019-03-03T22:42:48.694Z,9.57
2019-03-03T22:45:18.347Z,12.83
2019-03-03T22:47:46.875Z,11.60
2019-03-03T22:50:16.959Z,11.23
2019-03-03T22:52:46.509Z,10.83
2019-03-03T22:55:16.843Z,11.57
2019-03-03T22:57:45.527Z,7.20
2019-03-03T23:00:51.037Z,9.87
2019-03-03T23:03:28.909Z,10.60
2019-03-03T23:06:00.809Z,9.70
2019-03-03T23:08:35.333Z,9.83
2019-03-03T23:11:09.581Z,8.80
2019-03-03T23:13:41.495Z,7.90
2019-03-03T23:16:38.833Z,10.10
2019-03-03T23:19:38.332Z,13.70
2019-03-03T23:22:18.756Z,11.13
2019-03-03T23:25:16.073Z,14.43
2019-03-03T23:27:44.642Z,10.73
2019-03-03T23:30:13.166Z,6.77
2019-03-03T23:32:41.799Z,12.57
2019-03-03T23:35:10.391Z,15.07
2019-03-03T23:37:38.962Z,5.33
2019-03-03T23:40:08.087Z,6.80
2019-03-03T23:42:36.686Z,11.10
2019-03-03T23:45:08.281Z,14.67
2019-03-03T23:47:36.920Z,10.43
2019-03-03T23:50:07.924Z,10.07
2019-03-03T23:52:36.894Z,13.70
2019-03-03T23:55:07.593Z,10.20
2019-03-03T23:57:36.193Z,9.90
